createdAt,value
2023-05-15T00:01:45.361Z,33.42
2023-05-15T00:03:46.836Z,33.29
2023-05-15T00:05:48.800Z,33.44
2023-05-15T00:07:50.486Z,33.23
2023-05-15T00:09:51.985Z,33.46
2023-05-15T00:11:53.915Z,33.46
2023-05-15T00:13:55.479Z,33.58
2023-05-15T00:15:57.554Z,33.32
2023-05-15T00:17:59.040Z,33.42
2023-05-15T00:20:00.673Z,33.28
2023-05-15T00:22:02.133Z,33.53
2023-05-15T00:24:03.601Z,33.35
2023-05-15T00:26:05.172Z,33.01
2023-05-15T00:28:06.683Z,33.44
2023-05-15T00:30:08.423Z,33.45
2023-05-15T00:32:09.907Z,33.44
2023-05-15T00:34:11.380Z,33.33
2023-05-15T00:36:12.981Z,33.21
2023-05-15T00:38:14.467Z,33.47
2023-05-15T00:40:20.491Z,33.14
2023-05-15T00:42:23.600Z,33.17
2023-05-15T00:44:26.569Z,33.08
2023-05-15T00:46:28.876Z,33.02
2023-05-15T00:48:31.492Z,33.17
2023-05-15T00:50:33.365Z,33.43
2023-05-15T00:52:35.846Z,33.37
2023-05-15T00:54:37.324Z,33.22
2023-05-15T00:56:41.638Z,33.38
2023-05-15T00:58:45.168Z,32.93
2023-05-15T01:00:48.115Z,33.12
2023-05-15T01:02:49.722Z,33.38
2023-05-15T01:04:51.785Z,33.20
2023-05-15T01:06:53.907Z,33.32
2023-05-15T01:08:56.721Z,33.30
2023-05-15T01:10:58.772Z,33.32
2023-05-15T01:13:02.362Z,33.36
2023-05-15T01:15:03.935Z,33.44
2023-05-15T01:17:05.475Z,33.33
2023-05-15T01:19:07.045Z,33.28
2023-05-15T01:21:08.589Z,33.22
2023-05-15T01:23:15.711Z,33.39
2023-05-15T01:25:30.903Z,33.21
2023-05-15T01:27:41.334Z,33.08
2023-05-15T01:30:01.475Z,33.31
2023-05-15T01:32:04.902Z,33.36
2023-05-15T01:34:08.276Z,33.29
2023-05-15T01:36:21.652Z,33.37
2023-05-15T01:38:32.073Z,33.26
2023-05-15T01:40:34.065Z,33.25
2023-05-15T01:42:36.764Z,33.01
2023-05-15T01:44:42.704Z,33.02
2023-05-15T01:46:45.803Z,33.22
2023-05-15T01:48:49.381Z,33.06
2023-05-15T01:50:51.566Z,33.41
2023-05-15T01:52:54.538Z,33.26
2023-05-15T01:54:56.885Z,33.15
2023-05-15T01:56:58.923Z,33.03
2023-05-15T01:59:00.836Z,33.33
2023-05-15T02:01:02.481Z,33.29
2023-05-15T02:03:06.046Z,33.21
2023-05-15T02:05:07.930Z,33.33
2023-05-15T02:07:09.610Z,33.08
2023-05-15T02:09:11.353Z,33.05
2023-05-15T02:11:13.387Z,32.87
2023-05-15T02:13:14.949Z,33.12
2023-05-15T02:15:16.949Z,33.18
2023-05-15T02:17:18.683Z,32.95
2023-05-15T02:19:20.556Z,32.99
2023-05-15T02:21:22.125Z,33.11
2023-05-15T02:23:23.651Z,32.88
2023-05-15T02:25:32.559Z,32.75
2023-05-15T02:27:43.746Z,33.18
2023-05-15T02:29:54.393Z,33.23
2023-05-15T02:32:10.827Z,33.11
2023-05-15T02:34:15.182Z,32.81
2023-05-15T02:36:20.432Z,33.07
2023-05-15T02:38:29.029Z,32.96
2023-05-15T02:40:31.911Z,32.93
2023-05-15T02:42:34.583Z,32.97
2023-05-15T02:44:37.387Z,32.84
2023-05-15T02:46:39.070Z,32.99
2023-05-15T02:48:41.713Z,32.78
2023-05-15T02:50:43.543Z,32.70
2023-05-15T02:52:44.980Z,32.73
2023-05-15T02:54:46.417Z,32.77
2023-05-15T02:56:48.085Z,32.81
2023-05-15T02:58:49.770Z,32.72
2023-05-15T03:00:51.209Z,33.01
2023-05-15T03:02:53.335Z,32.84
2023-05-15T03:04:54.898Z,32.77
2023-05-15T03:06:56.488Z,32.74
2023-05-15T03:08:57.946Z,32.92
2023-05-15T03:10:59.392Z,32.80
2023-05-15T03:13:00.897Z,32.83
2023-05-15T03:15:02.443Z,32.67
2023-05-15T03:17:04.042Z,32.91
2023-05-15T03:19:05.987Z,32.56
2023-05-15T03:21:07.430Z,32.79
2023-05-15T03:23:08.897Z,32.57
2023-05-15T03:25:11.086Z,32.57
2023-05-15T03:27:12.479Z,32.63
2023-05-15T03:29:13.929Z,32.79
2023-05-15T03:31:15.555Z,32.28
2023-05-15T03:33:17.373Z,32.64
2023-05-15T03:35:18.817Z,32.51
2023-05-15T03:37:20.263Z,32.70
2023-05-15T03:39:21.720Z,32.58
2023-05-15T03:41:23.290Z,32.69
2023-05-15T03:43:24.743Z,32.42
2023-05-15T03:45:26.383Z,32.58
2023-05-15T03:47:28.081Z,32.55
2023-05-15T03:49:29.566Z,32.58
2023-05-15T03:51:31.036Z,32.34
2023-05-15T03:53:32.692Z,32.46
2023-05-15T03:55:35.645Z,32.62
2023-05-15T03:57:37.266Z,32.32
2023-05-15T03:59:38.717Z,32.34
2023-05-15T04:01:55.392Z,32.45
2023-05-15T04:04:01.719Z,32.70
2023-05-15T04:06:03.227Z,32.45
2023-05-15T04:08:04.831Z,32.53
2023-05-15T04:10:06.874Z,32.48
2023-05-15T04:12:08.457Z,32.50
2023-05-15T04:14:09.968Z,32.45
2023-05-15T04:16:11.449Z,32.63
2023-05-15T04:18:12.907Z,32.54
2023-05-15T04:20:15.387Z,32.53
2023-05-15T04:22:16.903Z,32.42
2023-05-15T04:24:18.355Z,32.53
2023-05-15T04:26:19.848Z,32.35
2023-05-15T04:28:21.787Z,32.46
2023-05-15T04:30:23.448Z,32.46
2023-05-15T04:32:24.858Z,32.36
2023-05-15T04:34:26.703Z,32.36
2023-05-15T04:36:28.207Z,32.39
2023-05-15T04:38:30.097Z,32.31
2023-05-15T04:40:31.874Z,32.35
2023-05-15T04:42:33.484Z,32.28
2023-05-15T04:44:34.914Z,32.30
2023-05-15T04:46:37.402Z,32.12
2023-05-15T04:48:38.990Z,32.06
2023-05-15T04:50:40.459Z,32.27
2023-05-15T04:52:43.103Z,32.12
2023-05-15T04:54:44.561Z,32.18
2023-05-15T04:56:46.245Z,32.29
2023-05-15T04:58:47.628Z,32.08
2023-05-15T05:00:49.058Z,32.39
2023-05-15T05:02:50.958Z,32.33
2023-05-15T05:04:52.494Z,31.96
2023-05-15T05:06:53.945Z,32.30
2023-05-15T05:08:55.363Z,32.25
2023-05-15T05:10:57.784Z,32.32
2023-05-15T05:12:59.193Z,32.34
2023-05-15T05:15:00.616Z,32.17
2023-05-15T05:17:02.186Z,32.21
2023-05-15T05:19:03.967Z,32.29
2023-05-15T05:21:05.853Z,32.30
2023-05-15T05:23:07.399Z,32.32
2023-05-15T05:25:08.934Z,32.21
2023-05-15T05:27:10.422Z,32.39
2023-05-15T05:29:12.112Z,32.33
2023-05-15T05:31:13.682Z,32.33
2023-05-15T05:33:15.396Z,32.35
2023-05-15T05:35:16.905Z,32.17
2023-05-15T05:37:18.309Z,32.15
2023-05-15T05:39:20.820Z,32.44
2023-05-15T05:41:22.248Z,32.26
2023-05-15T05:43:25.485Z,32.38
2023-05-15T05:45:27.388Z,32.40
2023-05-15T05:47:29.232Z,32.36
2023-05-15T05:49:30.702Z,32.45
2023-05-15T05:51:32.232Z,32.39
2023-05-15T05:53:33.651Z,32.42
2023-05-15T05:55:35.306Z,32.24
2023-05-15T05:57:36.805Z,32.51
2023-05-15T05:59:38.293Z,32.57
2023-05-15T06:01:39.879Z,32.51
2023-05-15T06:03:43.098Z,32.16
2023-05-15T06:05:44.610Z,32.21
2023-05-15T06:07:46.350Z,32.61
2023-05-15T06:09:48.794Z,32.51
2023-05-15T06:11:50.669Z,32.42
2023-05-15T06:13:52.715Z,32.39
2023-05-15T06:15:54.199Z,32.54
2023-05-15T06:17:55.845Z,32.55
2023-05-15T06:19:57.385Z,32.48
2023-05-15T06:21:58.911Z,32.65
2023-05-15T06:24:00.562Z,32.65
2023-05-15T06:26:02.521Z,32.30
2023-05-15T06:28:04.094Z,32.34
2023-05-15T06:30:06.436Z,32.65
2023-05-15T06:32:07.918Z,32.77
2023-05-15T06:34:09.537Z,32.54
2023-05-15T06:36:11.048Z,32.81
2023-05-15T06:38:12.614Z,32.72
2023-05-15T06:40:14.060Z,32.66
2023-05-15T06:42:15.559Z,32.50
2023-05-15T06:44:17.008Z,32.47
2023-05-15T06:46:19.204Z,32.63
2023-05-15T06:48:20.810Z,32.52
2023-05-15T06:50:22.420Z,32.72
2023-05-15T06:52:23.812Z,32.50
2023-05-15T06:54:25.469Z,32.70
2023-05-15T06:56:26.878Z,32.60
2023-05-15T06:58:28.410Z,32.89
2023-05-15T07:00:29.956Z,32.91
2023-05-15T07:02:31.442Z,32.99
2023-05-15T07:04:33.360Z,33.02
2023-05-15T07:06:34.972Z,32.70
2023-05-15T07:08:36.653Z,32.97
2023-05-15T07:10:38.281Z,32.81
2023-05-15T07:12:39.732Z,32.93
2023-05-15T07:14:41.225Z,32.92
2023-05-15T07:16:42.748Z,32.79
2023-05-15T07:18:44.319Z,32.77
2023-05-15T07:20:45.950Z,33.04
2023-05-15T07:22:55.642Z,33.08
2023-05-15T07:24:57.998Z,33.01
2023-05-15T07:26:59.541Z,32.82
2023-05-15T07:29:01.040Z,32.97
2023-05-15T07:31:03.350Z,32.78
2023-05-15T07:33:04.928Z,33.08
2023-05-15T07:35:06.660Z,33.06
2023-05-15T07:37:08.300Z,33.04
2023-05-15T07:39:10.074Z,32.90
2023-05-15T07:41:11.565Z,33.11
2023-05-15T07:43:13.000Z,32.96
2023-05-15T07:45:14.628Z,33.06
2023-05-15T07:47:16.741Z,33.14
2023-05-15T07:49:18.176Z,32.83
2023-05-15T07:51:19.645Z,32.84
2023-05-15T07:53:21.714Z,33.13
2023-05-15T07:55:23.207Z,33.00
2023-05-15T07:57:25.579Z,33.21
2023-05-15T07:59:27.337Z,32.95
2023-05-15T08:01:30.570Z,33.19
2023-05-15T08:03:33.890Z,33.13
2023-05-15T08:05:35.681Z,33.11
2023-05-15T08:07:37.144Z,33.04
2023-05-15T08:09:38.694Z,32.96
2023-05-15T08:11:40.532Z,33.40
2023-05-15T08:13:42.032Z,33.10
2023-05-15T08:15:43.451Z,33.12
2023-05-15T08:17:45.082Z,32.93
2023-05-15T08:19:47.298Z,32.94
2023-05-15T08:21:48.829Z,33.29
2023-05-15T08:23:53.651Z,33.35
2023-05-15T08:25:55.368Z,33.02
2023-05-15T08:27:56.830Z,33.21
2023-05-15T08:29:58.333Z,33.12
2023-05-15T08:31:59.816Z,33.24
2023-05-15T08:34:01.219Z,33.08
2023-05-15T08:36:02.697Z,33.39
2023-05-15T08:38:04.261Z,33.12
2023-05-15T08:40:07.831Z,33.41
2023-05-15T08:42:15.469Z,33.33
2023-05-15T08:44:17.389Z,33.38
2023-05-15T08:46:19.165Z,33.42
2023-05-15T08:48:21.851Z,33.27
2023-05-15T08:50:23.625Z,33.45
2023-05-15T08:52:25.530Z,33.25
2023-05-15T08:54:27.052Z,33.27
2023-05-15T08:56:28.749Z,33.55
2023-05-15T08:58:31.198Z,33.38
2023-05-15T09:00:32.839Z,33.26
2023-05-15T09:02:35.122Z,33.43
2023-05-15T09:04:36.632Z,33.52
2023-05-15T09:06:38.958Z,33.57
2023-05-15T09:08:41.126Z,33.23
2023-05-15T09:10:42.832Z,33.41
2023-05-15T09:12:44.644Z,33.43
2023-05-15T09:14:46.469Z,33.37
2023-05-15T09:16:50.872Z,33.50
2023-05-15T09:18:52.878Z,33.32
2023-05-15T09:20:56.198Z,33.31
2023-05-15T09:22:58.676Z,33.39
2023-05-15T09:25:01.595Z,33.54
2023-05-15T09:27:06.977Z,33.58
2023-05-15T09:29:08.859Z,33.31
2023-05-15T09:31:11.104Z,33.32
2023-05-15T09:33:12.677Z,33.68
2023-05-15T09:35:33.093Z,33.44
2023-05-15T09:37:34.608Z,33.41
2023-05-15T09:39:43.454Z,33.61
2023-05-15T09:41:45.101Z,33.35
2023-05-15T09:43:46.712Z,33.48
2023-05-15T09:45:48.542Z,33.66
2023-05-15T09:47:50.074Z,33.58
2023-05-15T09:49:52.328Z,33.61
2023-05-15T09:51:55.117Z,33.37
2023-05-15T09:53:56.773Z,33.76
2023-05-15T09:55:58.282Z,33.69
2023-05-15T09:58:06.442Z,33.63
2023-05-15T10:00:12.090Z,33.64
2023-05-15T10:02:35.204Z,33.35
2023-05-15T10:04:37.086Z,33.37
2023-05-15T10:06:43.375Z,33.60
2023-05-15T10:08:50.867Z,33.55
2023-05-15T10:10:53.929Z,33.68
2023-05-15T10:12:58.424Z,33.81
2023-05-15T10:15:01.048Z,33.72
2023-05-15T10:17:02.908Z,33.57
2023-05-15T10:19:05.496Z,33.71
2023-05-15T10:21:08.990Z,33.89
2023-05-15T10:23:10.876Z,33.81
2023-05-15T10:25:32.620Z,33.65
2023-05-15T10:27:36.088Z,33.55
2023-05-15T10:29:37.867Z,33.80
2023-05-15T10:31:40.159Z,33.58
2023-05-15T10:33:41.891Z,33.86
2023-05-15T10:35:43.574Z,33.93
2023-05-15T10:37:48.961Z,33.94
2023-05-15T10:39:52.295Z,33.94
2023-05-15T10:41:54.091Z,33.56
2023-05-15T10:43:57.884Z,33.70
2023-05-15T10:45:59.584Z,33.87
2023-05-15T10:48:02.202Z,33.70
2023-05-15T10:50:04.365Z,33.73
2023-05-15T10:52:06.140Z,33.93
2023-05-15T10:54:10.553Z,33.80
2023-05-15T10:56:12.856Z,33.62
2023-05-15T10:58:14.329Z,33.99
2023-05-15T11:00:26.344Z,33.62
2023-05-15T11:02:30.489Z,34.03
2023-05-15T11:04:32.950Z,33.73
2023-05-15T11:06:35.125Z,34.00
2023-05-15T11:08:37.434Z,33.93
2023-05-15T11:10:39.353Z,34.05
2023-05-15T11:12:57.632Z,34.08
2023-05-15T11:14:59.202Z,33.85
2023-05-15T11:17:04.070Z,33.94
2023-05-15T11:19:21.570Z,33.93
2023-05-15T11:21:23.149Z,33.98
2023-05-15T11:23:25.522Z,34.08
2023-05-15T11:25:31.567Z,33.66
2023-05-15T11:27:38.155Z,33.99
2023-05-15T11:29:59.505Z,33.84
2023-05-15T11:32:00.980Z,33.84
2023-05-15T11:34:06.564Z,33.88
2023-05-15T11:36:08.212Z,33.77
2023-05-15T11:38:09.632Z,33.81
2023-05-15T11:40:18.576Z,33.92
2023-05-15T11:42:20.133Z,33.73
2023-05-15T11:44:22.189Z,34.16
2023-05-15T11:46:24.369Z,33.81
2023-05-15T11:48:30.425Z,34.11
2023-05-15T11:50:33.328Z,34.02
2023-05-15T11:52:34.932Z,33.81
2023-05-15T11:54:36.585Z,34.12
2023-05-15T11:56:42.837Z,34.77
2023-05-15T11:58:44.294Z,34.40
2023-05-15T12:00:46.788Z,34.26
2023-05-15T12:02:48.274Z,34.71
2023-05-15T12:04:51.340Z,34.63
2023-05-15T12:06:52.968Z,34.93
2023-05-15T12:08:54.435Z,34.80
2023-05-15T12:10:58.481Z,34.96
2023-05-15T12:13:00.116Z,35.27
2023-05-15T12:15:01.665Z,35.42
2023-05-15T12:17:04.404Z,35.77
2023-05-15T12:19:06.150Z,35.60
2023-05-15T12:21:10.777Z,35.92
2023-05-15T12:23:15.105Z,35.91
2023-05-15T12:25:17.639Z,35.96
2023-05-15T12:27:19.209Z,36.08
2023-05-15T12:29:20.796Z,36.31
2023-05-15T12:31:22.486Z,36.31
2023-05-15T12:33:25.907Z,36.40
2023-05-15T12:35:27.514Z,36.72
2023-05-15T12:37:31.460Z,36.82
2023-05-15T12:39:35.631Z,36.90
2023-05-15T12:41:37.284Z,37.41
2023-05-15T12:43:38.812Z,37.28
2023-05-15T12:45:40.736Z,37.50
2023-05-15T12:47:42.898Z,37.48
2023-05-15T12:49:45.733Z,37.73
2023-05-15T12:51:47.218Z,38.26
2023-05-15T12:53:48.759Z,38.27
2023-05-15T12:55:50.919Z,38.93
2023-05-15T12:57:59.380Z,38.92
2023-05-15T13:00:00.979Z,38.64
2023-05-15T13:02:02.625Z,38.83
2023-05-15T13:04:04.088Z,38.99
2023-05-15T13:06:07.024Z,38.83
2023-05-15T13:08:08.526Z,38.96
2023-05-15T13:10:10.367Z,39.12
2023-05-15T13:12:12.182Z,39.20
2023-05-15T13:14:17.516Z,38.53
2023-05-15T13:16:19.482Z,38.85
2023-05-15T13:18:21.018Z,38.54
2023-05-15T13:20:23.047Z,38.06
2023-05-15T13:22:24.602Z,37.96
2023-05-15T13:24:26.013Z,37.84
2023-05-15T13:26:27.529Z,37.56
2023-05-15T13:28:29.050Z,37.85
2023-05-15T13:30:30.839Z,37.44
2023-05-15T13:32:32.387Z,37.37
2023-05-15T13:34:33.854Z,37.44
2023-05-15T13:36:35.554Z,37.59
2023-05-15T13:38:37.196Z,37.27
2023-05-15T13:40:38.846Z,37.05
2023-05-15T13:42:41.408Z,37.16
2023-05-15T13:44:42.796Z,37.27
2023-05-15T13:46:44.226Z,37.49
2023-05-15T13:48:45.851Z,37.44
2023-05-15T13:50:47.261Z,37.36
2023-05-15T13:52:48.808Z,37.60
2023-05-15T13:54:50.570Z,37.84
2023-05-15T13:56:52.130Z,37.48
2023-05-15T13:58:53.534Z,37.74
2023-05-15T14:00:54.960Z,37.57
2023-05-15T14:02:56.451Z,37.61
2023-05-15T14:04:57.978Z,37.68
2023-05-15T14:06:59.410Z,37.83
2023-05-15T14:09:00.840Z,37.69
2023-05-15T14:11:02.663Z,37.38
2023-05-15T14:13:04.224Z,37.69
2023-05-15T14:15:05.950Z,37.50
2023-05-15T14:17:07.513Z,37.84
2023-05-15T14:19:09.113Z,37.99
2023-05-15T14:21:10.663Z,37.86
2023-05-15T14:23:12.112Z,37.79
2023-05-15T14:25:13.790Z,37.98
2023-05-15T14:27:15.273Z,38.32
2023-05-15T14:29:16.975Z,38.82
2023-05-15T14:31:18.540Z,38.75
2023-05-15T14:33:20.576Z,38.88
2023-05-15T14:35:22.918Z,39.14
2023-05-15T14:37:24.376Z,39.55
2023-05-15T14:39:25.881Z,39.50
2023-05-15T14:41:27.965Z,39.77
2023-05-15T14:43:29.949Z,40.01
2023-05-15T14:45:31.538Z,40.51
2023-05-15T14:47:33.652Z,40.66
2023-05-15T14:49:35.900Z,41.01
2023-05-15T14:51:37.362Z,40.67
2023-05-15T14:53:38.921Z,41.29
2023-05-15T14:55:40.497Z,41.24
2023-05-15T14:57:42.046Z,41.29
2023-05-15T14:59:43.575Z,41.45
2023-05-15T15:01:46.474Z,41.00
2023-05-15T15:03:48.248Z,40.61
2023-05-15T15:05:50.039Z,41.36
2023-05-15T15:07:57.254Z,41.17
2023-05-15T15:09:58.734Z,41.07
2023-05-15T15:12:00.244Z,41.10
2023-05-15T15:14:02.518Z,40.67
2023-05-15T15:16:04.840Z,41.23
2023-05-15T15:18:07.616Z,40.84
2023-05-15T15:20:09.466Z,40.90
2023-05-15T15:22:11.069Z,40.64
2023-05-15T15:24:12.456Z,40.64
2023-05-15T15:26:14.332Z,40.55
2023-05-15T15:28:15.941Z,40.65
2023-05-15T15:30:17.474Z,40.58
2023-05-15T15:32:19.863Z,40.75
2023-05-15T15:34:21.976Z,40.47
2023-05-15T15:36:23.788Z,40.48
2023-05-15T15:38:25.344Z,40.38
2023-05-15T15:40:27.058Z,40.73
2023-05-15T15:42:28.833Z,41.00
2023-05-15T15:44:30.364Z,40.80
2023-05-15T15:46:31.822Z,40.54
2023-05-15T15:48:33.357Z,40.87
2023-05-15T15:50:34.878Z,40.94
2023-05-15T15:52:36.671Z,40.79
2023-05-15T15:54:38.413Z,40.66
2023-05-15T15:56:41.322Z,40.72
2023-05-15T15:58:42.768Z,40.63
2023-05-15T16:00:44.417Z,40.71
2023-05-15T16:02:46.467Z,40.50
2023-05-15T16:04:48.137Z,40.65
2023-05-15T16:06:49.658Z,40.45
2023-05-15T16:08:51.412Z,41.51
2023-05-15T16:10:53.691Z,40.87
2023-05-15T16:12:55.216Z,41.37
2023-05-15T16:14:58.669Z,41.58
2023-05-15T16:17:04.000Z,41.51
2023-05-15T16:19:05.652Z,41.79
2023-05-15T16:21:07.216Z,41.94
2023-05-15T16:23:11.558Z,42.28
2023-05-15T16:25:13.021Z,42.72
2023-05-15T16:27:14.432Z,42.64
2023-05-15T16:29:15.830Z,42.18
2023-05-15T16:31:19.117Z,42.14
2023-05-15T16:33:20.747Z,42.70
2023-05-15T16:35:22.444Z,42.79
2023-05-15T16:37:23.850Z,42.38
2023-05-15T16:39:25.570Z,42.39
2023-05-15T16:41:27.036Z,42.90
2023-05-15T16:43:28.571Z,42.51
2023-05-15T16:45:30.020Z,42.46
2023-05-15T16:47:31.421Z,42.46
2023-05-15T16:49:32.905Z,42.34
2023-05-15T16:51:34.466Z,42.99
2023-05-15T16:53:35.993Z,42.15
2023-05-15T16:55:37.917Z,42.41
2023-05-15T16:57:39.324Z,42.41
2023-05-15T16:59:40.857Z,42.91
2023-05-15T17:01:42.427Z,42.65
2023-05-15T17:03:44.297Z,42.86
2023-05-15T17:05:47.320Z,42.94
2023-05-15T17:07:48.878Z,42.69
2023-05-15T17:09:50.342Z,42.45
2023-05-15T17:11:51.775Z,42.75
2023-05-15T17:13:53.208Z,42.15
2023-05-15T17:15:54.673Z,42.01
2023-05-15T17:17:56.129Z,42.19
2023-05-15T17:19:57.781Z,41.84
2023-05-15T17:21:59.196Z,42.32
2023-05-15T17:24:01.082Z,41.60
2023-05-15T17:26:04.184Z,41.91
2023-05-15T17:28:05.593Z,41.89
2023-05-15T17:30:10.921Z,41.73
2023-05-15T17:32:12.583Z,41.62
2023-05-15T17:34:14.125Z,41.45
2023-05-15T17:36:15.654Z,41.33
2023-05-15T17:38:17.156Z,41.12
2023-05-15T17:40:18.776Z,41.10
2023-05-15T17:42:21.149Z,41.16
2023-05-15T17:44:27.937Z,41.32
2023-05-15T17:46:29.807Z,41.12
2023-05-15T17:48:31.289Z,41.34
2023-05-15T17:50:34.530Z,41.29
2023-05-15T17:52:37.986Z,41.89
2023-05-15T17:54:39.391Z,41.16
2023-05-15T17:56:40.926Z,41.14
2023-05-15T17:58:42.777Z,41.68
2023-05-15T18:00:44.492Z,41.74
2023-05-15T18:02:46.005Z,41.38
2023-05-15T18:04:47.861Z,41.41
2023-05-15T18:06:49.556Z,40.98
2023-05-15T18:08:51.465Z,41.27
2023-05-15T18:10:53.073Z,40.98
2023-05-15T18:12:54.624Z,41.01
2023-05-15T18:14:56.002Z,40.87
2023-05-15T18:16:57.529Z,40.30
2023-05-15T18:18:59.437Z,40.37
2023-05-15T18:21:00.957Z,39.95
2023-05-15T18:23:02.635Z,39.88
2023-05-15T18:25:04.452Z,39.88
2023-05-15T18:27:05.882Z,40.00
2023-05-15T18:29:07.291Z,39.76
2023-05-15T18:31:08.896Z,39.84
2023-05-15T18:33:10.517Z,39.43
2023-05-15T18:35:12.414Z,39.28
2023-05-15T18:37:13.920Z,39.30
2023-05-15T18:39:15.780Z,39.27
2023-05-15T18:41:17.241Z,39.42
2023-05-15T18:43:18.808Z,38.92
2023-05-15T18:45:22.238Z,39.04
2023-05-15T18:47:24.045Z,39.06
2023-05-15T18:49:25.751Z,39.19
2023-05-15T18:51:27.212Z,39.06
2023-05-15T18:53:28.867Z,38.71
2023-05-15T18:55:30.289Z,39.05
2023-05-15T18:57:31.788Z,38.85
2023-05-15T18:59:33.276Z,38.89
2023-05-15T19:01:34.965Z,38.65
2023-05-15T19:03:36.570Z,38.40
2023-05-15T19:05:38.317Z,38.57
2023-05-15T19:07:41.308Z,38.53
2023-05-15T19:09:42.855Z,38.52
2023-05-15T19:11:46.586Z,38.10
2023-05-15T19:13:48.099Z,38.49
2023-05-15T19:15:52.782Z,38.52
2023-05-15T19:17:54.322Z,38.55
2023-05-15T19:19:55.908Z,38.12
2023-05-15T19:21:57.387Z,38.16
2023-05-15T19:23:58.824Z,38.06
2023-05-15T19:26:00.448Z,38.02
2023-05-15T19:28:01.867Z,38.13
2023-05-15T19:30:03.788Z,38.24
2023-05-15T19:32:05.530Z,38.09
2023-05-15T19:34:07.086Z,37.93
2023-05-15T19:36:09.271Z,37.77
2023-05-15T19:38:10.869Z,37.98
2023-05-15T19:40:12.493Z,37.76
2023-05-15T19:42:13.905Z,38.13
2023-05-15T19:44:15.379Z,37.80
2023-05-15T19:46:17.563Z,37.64
2023-05-15T19:48:19.183Z,37.72
2023-05-15T19:50:20.724Z,37.73
2023-05-15T19:52:22.354Z,37.65
2023-05-15T19:54:23.740Z,37.35
2023-05-15T19:56:26.066Z,37.56
2023-05-15T19:58:27.629Z,37.37
2023-05-15T20:00:29.336Z,37.33
2023-05-15T20:02:30.905Z,37.19
2023-05-15T20:04:33.913Z,37.24
2023-05-15T20:06:35.333Z,37.13
2023-05-15T20:08:36.931Z,37.30
2023-05-15T20:10:38.363Z,37.38
2023-05-15T20:12:39.816Z,37.35
2023-05-15T20:14:42.040Z,37.14
2023-05-15T20:16:43.693Z,37.22
2023-05-15T20:18:47.760Z,37.16
2023-05-15T20:20:49.825Z,37.32
2023-05-15T20:22:51.540Z,36.94
2023-05-15T20:24:52.969Z,37.11
2023-05-15T20:26:54.462Z,36.67
2023-05-15T20:28:55.912Z,36.64
2023-05-15T20:30:57.853Z,37.02
2023-05-15T20:32:59.522Z,37.01
2023-05-15T20:35:01.559Z,37.07
2023-05-15T20:37:03.119Z,37.07
2023-05-15T20:39:05.932Z,36.68
2023-05-15T20:41:07.677Z,36.75
2023-05-15T20:43:09.463Z,36.45
2023-05-15T20:45:11.011Z,36.78
2023-05-15T20:47:12.509Z,36.47
2023-05-15T20:49:14.287Z,36.63
2023-05-15T20:51:16.019Z,36.53
2023-05-15T20:53:17.512Z,36.52
2023-05-15T20:55:20.957Z,36.47
2023-05-15T20:57:22.442Z,36.58
2023-05-15T20:59:23.876Z,36.53
2023-05-15T21:01:25.556Z,36.42
2023-05-15T21:03:27.164Z,36.57
2023-05-15T21:05:28.639Z,36.44
2023-05-15T21:07:30.078Z,36.32
2023-05-15T21:09:31.634Z,36.24
2023-05-15T21:11:33.067Z,36.43
2023-05-15T21:13:34.451Z,36.28
2023-05-15T21:15:36.547Z,36.43
2023-05-15T21:17:38.276Z,36.21
2023-05-15T21:19:39.700Z,36.45
2023-05-15T21:21:41.210Z,35.94
2023-05-15T21:23:42.617Z,36.02
2023-05-15T21:25:44.731Z,35.98
2023-05-15T21:27:46.202Z,36.26
2023-05-15T21:29:47.689Z,35.73
2023-05-15T21:31:49.211Z,36.03
2023-05-15T21:33:50.756Z,36.19
2023-05-15T21:35:52.564Z,36.20
2023-05-15T21:37:54.197Z,35.68
2023-05-15T21:39:56.011Z,35.99
2023-05-15T21:41:57.542Z,35.77
2023-05-15T21:43:59.064Z,35.78
2023-05-15T21:46:04.301Z,36.04
2023-05-15T21:48:06.400Z,35.96
2023-05-15T21:50:07.928Z,35.84
2023-05-15T21:52:09.497Z,35.78
2023-05-15T21:54:11.072Z,35.89
2023-05-15T21:56:12.506Z,35.72
2023-05-15T21:58:14.166Z,35.57
2023-05-15T22:00:16.249Z,35.85
2023-05-15T22:02:17.736Z,35.50
2023-05-15T22:04:19.460Z,35.81
2023-05-15T22:06:21.044Z,35.66
2023-05-15T22:08:22.563Z,35.71
2023-05-15T22:10:24.177Z,35.41
2023-05-15T22:12:26.564Z,35.61
2023-05-15T22:14:28.344Z,35.35
2023-05-15T22:16:29.837Z,35.75
2023-05-15T22:18:31.477Z,35.62
2023-05-15T22:20:32.971Z,35.27
2023-05-15T22:22:35.521Z,35.39
2023-05-15T22:24:37.281Z,35.48
2023-05-15T22:26:38.679Z,35.42
2023-05-15T22:28:40.203Z,35.20
2023-05-15T22:30:41.702Z,35.43
2023-05-15T22:32:43.263Z,35.38
2023-05-15T22:34:44.722Z,35.38
2023-05-15T22:36:46.275Z,35.40
2023-05-15T22:38:48.209Z,35.20
2023-05-15T22:40:53.074Z,35.36
2023-05-15T22:42:54.627Z,35.28
2023-05-15T22:44:57.592Z,35.37
2023-05-15T22:46:59.055Z,35.25
2023-05-15T22:49:00.605Z,34.87
2023-05-15T22:51:02.401Z,35.20
2023-05-15T22:53:03.999Z,35.14
2023-05-15T22:55:06.246Z,35.04
2023-05-15T22:57:08.666Z,35.20
2023-05-15T22:59:10.431Z,35.11
2023-05-15T23:01:11.904Z,34.94
2023-05-15T23:03:13.440Z,34.75
2023-05-15T23:05:15.084Z,34.75
2023-05-15T23:07:17.280Z,34.96
2023-05-15T23:09:18.744Z,34.86
2023-05-15T23:11:21.346Z,34.86
2023-05-15T23:13:23.520Z,34.68
2023-05-15T23:15:25.091Z,35.07
2023-05-15T23:17:26.809Z,34.92
2023-05-15T23:19:28.234Z,34.97
2023-05-15T23:21:29.755Z,34.80
2023-05-15T23:23:31.449Z,34.86
2023-05-15T23:25:32.891Z,34.91
2023-05-15T23:27:34.458Z,34.80
2023-05-15T23:29:36.176Z,34.78
2023-05-15T23:31:37.752Z,34.77
2023-05-15T23:33:39.505Z,34.91
2023-05-15T23:35:41.184Z,34.89
2023-05-15T23:37:42.902Z,34.56
2023-05-15T23:39:44.799Z,34.42
2023-05-15T23:41:46.260Z,34.69
2023-05-15T23:43:49.815Z,34.58
2023-05-15T23:45:51.277Z,34.74
2023-05-15T23:47:53.094Z,34.40
2023-05-15T23:49:54.779Z,34.37
2023-05-15T23:51:56.194Z,34.54
2023-05-15T23:53:57.598Z,34.39
2023-05-15T23:55:58.990Z,34.40
2023-05-15T23:58:00.739Z,34.65
